Latest Weather Observations for Dubbo

IDN60801

Issued at 12:05 pm EST Saturday 2 August 2014 (issued every 30 minutes, with the page automatically refreshed every 10 minutes)

About weather observations | Map of weather stations | Latest weather observations for NSW | Other Formats
Station Details ID: 065070 Name: DUBBO AIRPORT AWS Lat: -32.22 Lon: 148.58 Height: 284.0 m
Data from the previous 72 hours. | See also: Recent months at Dubbo
Date/Time
EST
Temp
°C
App
Temp
°C
Dew
Point
Rel
Hum
%
Delta-T
°C
Wind Press
QNH
hPa
Press
MSL
hPa
Rain
since 9 am
mm
Dir
 
Spd
km/h
Gust
km/h
Spd
kts
Gust
kts
02/12:00pm 10.2 5.5 0.8 52 3.9 SSW 15 24 8 13 1028.0 1028.3 0.0
02/11:30am 9.6 5.6 0.8 54 3.6 SSW 11 19 6 10 1028.3 - 0.0
02/11:00am 8.8 5.9 1.2 59 3.1 SSE 6 13 3 7 1028.5 1028.8 0.0
02/10:30am 8.2 4.0 1.4 62 2.8 S 13 20 7 11 1028.7 - 0.0
02/10:00am 7.3 3.2 2.0 69 2.2 SSW 13 20 7 11 1028.6 1028.9 0.0
02/09:30am 6.5 1.9 1.6 71 2.0 S 15 24 8 13 1028.2 - 0.0
02/09:00am 5.4 1.1 1.3 75 1.6 S 13 19 7 10 1027.8 1028.0 0.0
02/08:30am 4.7 0.6 2.1 83 1.1 SW 13 20 7 11 1027.4 - 0.0
02/08:00am 4.0 0.7 2.4 89 0.6 W 9 11 5 6 1027.2 1027.4 0.0
02/07:30am 2.2 -1.2 2.1 99 0.0 SW 9 11 5 6 1026.5 - 0.0
02/07:00am 0.8 -1.9 0.2 96 0.2 W 4 9 2 5 1026.0 1026.3 0.0
02/06:30am 0.8 -3.2 0.2 96 0.2 SW 11 13 6 7 1025.6 - 0.0
02/06:00am 1.0 -2.6 0.7 98 0.1 SW 9 11 5 6 1025.1 1025.4 0.0
02/05:30am -0.5 -2.6 -0.9 97 0.1 CALM 0 2 0 1 1024.6 - 0.0
02/05:00am -0.6 -2.8 -1.3 95 0.2 CALM 0 0 0 0 1024.3 1024.5 0.0
02/04:30am 0.4 -3.0 -0.4 94 0.3 N 7 11 4 6 1024.0 - 0.0
02/04:00am 1.2 -2.9 -0.3 90 0.5 WSW 11 17 6 9 1023.6 1023.8 0.0
02/03:30am 1.7 -3.9 -0.2 87 0.7 WSW 19 20 10 11 1022.9 - 0.0
02/03:00am 3.3 -1.1 0.5 82 1.1 SSW 13 17 7 9 1023.6 1023.8 0.0
02/02:30am 3.9 -1.7 1.1 82 1.1 SW 20 26 11 14 1023.4 - 0.0
02/02:00am 3.3 -1.8 0.9 84 0.9 SW 17 20 9 11 1023.4 1023.6 0.0
02/01:30am 2.7 -1.0 -0.2 81 1.1 WSW 9 13 5 7 1023.1 - 0.0
02/01:00am 4.1 -0.6 0.6 78 1.4 SW 15 20 8 11 1022.9 1023.2 0.0
02/12:30am 4.6 -0.2 0.4 74 1.6 SW 15 20 8 11 1022.7 - 0.0
02/12:00am 4.9 0.2 0.7 74 1.6 WSW 15 22 8 12 1022.5 1022.8 0.0
 
Date/Time
EST
Temp
°C
App
Temp
°C
Dew
Point
Rel
Hum
%
Delta-T
°C
Wind Press
QNH
hPa
Press
MSL
hPa
Rain
since 9 am
mm
Dir
 
Spd
km/h
Gust
km/h
Spd
kts
Gust
kts
01/11:30pm 5.2 0.1 0.8 73 1.7 SW 17 20 9 11 1022.3 - 0.0
01/11:00pm 4.3 -0.2 -0.1 73 1.7 SW 13 17 7 9 1022.0 1022.3 0.0
01/10:30pm 4.3 -0.2 -0.3 72 1.8 WSW 13 19 7 10 1021.6 - 0.0
01/10:00pm 3.4 -1.2 -1.0 73 1.6 W 13 15 7 8 1021.3 1021.5 0.0
01/09:30pm 4.6 0.4 -0.8 68 2.0 W 11 15 6 8 1020.9 - 0.0
01/09:00pm 5.9 1.1 0.3 67 2.2 W 15 17 8 9 1020.4 1020.6 0.0
01/08:30pm 6.3 1.5 0.0 64 2.5 W 15 19 8 10 1020.0 - 0.0
01/08:00pm 7.2 2.0 0.4 62 2.7 W 17 20 9 11 1019.3 1019.6 0.0
01/07:30pm 7.6 2.0 0.1 59 3.0 WSW 19 24 10 13 1018.8 - 0.0
01/07:00pm 7.4 2.1 -0.3 58 3.0 WSW 17 22 9 12 1018.3 1018.5 0.0
01/06:30pm 8.6 2.9 -0.7 52 3.7 WSW 19 24 10 13 1017.8 - 0.0
01/06:00pm 10.0 4.1 -1.1 46 4.4 W 20 28 11 15 1016.9 1017.1 0.0
01/05:30pm 10.1 4.3 -0.1 49 4.2 WNW 20 26 11 14 1016.2 - 0.0
01/05:00pm 11.1 4.8 -0.7 44 4.8 W 22 28 12 15 1015.6 1015.8 0.0
01/04:30pm 12.1 3.9 -1.1 40 5.4 W 32 43 17 23 1015.3 - 0.0
01/04:00pm 11.7 5.0 -0.8 42 5.1 W 24 32 13 17 1015.0 1015.2 0.0
01/03:30pm 12.2 3.9 -1.7 38 5.6 W 32 43 17 23 1014.7 - 0.0
01/03:04pm 14.0 6.3 -0.4 37 6.1 W 30 48 16 26 1014.4 - 0.0
01/03:00pm 13.7 6.5 0.4 40 5.7 W 28 39 15 21 1014.4 1014.6 0.0
01/02:43pm 12.6 5.2 -1.0 39 5.6 WSW 28 46 15 25 1014.2 - 0.0
01/02:30pm 13.2 6.4 0.6 42 5.4 WSW 26 41 14 22 1014.1 - 0.0
01/02:00pm 13.2 6.0 0.6 42 5.4 W 28 35 15 19 1014.0 1014.2 0.0
01/01:30pm 12.2 3.9 0.0 43 5.1 W 33 41 18 22 1014.0 - 0.0
01/01:00pm 12.5 4.9 0.3 43 5.1 WSW 30 43 16 23 1014.0 1014.2 0.0
01/12:30pm 11.7 4.3 1.6 50 4.4 WSW 30 41 16 22 1014.0 - 0.0
01/12:00pm 12.8 5.8 4.0 55 4.0 W 30 37 16 20 1014.1 1014.3 0.0
01/11:30am 12.4 5.7 5.6 63 3.2 WSW 30 44 16 24 1014.2 - 0.0
01/11:00am 12.7 6.2 4.7 58 3.7 W 28 35 15 19 1013.8 1014.0 0.0
01/10:30am 11.7 6.3 6.2 69 2.6 WSW 24 32 13 17 1013.8 - 0.0
01/10:00am 10.4 5.4 6.5 77 1.9 WSW 22 28 12 15 1013.7 1013.9 0.0
01/09:30am 10.3 5.0 6.6 78 1.8 W 24 32 13 17 1013.4 - 0.0
01/09:00am 9.9 6.6 6.4 79 1.7 WNW 13 17 7 9 1012.9 1013.2 0.0
01/08:30am 8.3 5.6 5.6 83 1.2 NW 9 11 5 6 1012.9 - 0.0
01/08:00am 7.4 4.7 5.5 88 0.9 NW 9 11 5 6 1012.7 1013.0 0.0
01/07:30am 5.3 3.2 3.8 90 0.6 WNW 4 6 2 3 1012.3 - 0.0
01/07:00am 5.6 4.3 3.9 89 0.7 CALM 0 0 0 0 1011.8 1012.2 0.0
01/06:30am 5.7 2.5 2.9 82 1.2 WSW 9 11 5 6 1011.4 - 0.0
01/06:00am 7.9 4.6 4.3 78 1.6 SW 11 19 6 10 1011.2 1011.5 0.0
01/05:30am 7.3 3.3 3.0 74 1.8 SW 13 15 7 8 1010.7 - 0.0
01/05:00am 7.3 3.2 0.1 60 2.9 W 11 13 6 7 1010.2 1010.5 0.0
01/04:30am 9.0 3.4 -0.1 53 3.7 W 19 24 10 13 1009.8 - 0.0
01/04:00am 10.0 3.9 0.1 50 4.1 WNW 22 30 12 16 1009.0 1009.3 0.0
01/03:30am 9.9 4.7 0.0 50 4.0 NW 17 24 9 13 1008.6 - 0.0
01/03:00am 9.3 4.5 0.0 52 3.8 NNW 15 20 8 11 1009.1 1009.4 0.0
01/02:30am 9.0 4.2 -0.1 53 3.7 NNW 15 17 8 9 1009.5 - 0.0
01/02:00am 8.8 4.0 0.3 55 3.5 NW 15 19 8 10 1009.8 1010.1 0.0
01/01:30am 8.5 4.1 0.2 56 3.4 NW 13 17 7 9 1010.1 - 0.0
01/01:00am 8.3 3.8 -0.2 55 3.4 NNW 13 15 7 8 1010.3 1010.6 0.0
01/12:30am 9.3 5.3 0.2 53 3.7 NNW 11 15 6 8 1010.7 - 0.0
01/12:00am 9.5 5.8 0.1 52 3.8 NNW 9 11 5 6 1010.9 1011.2 0.0
 
Date/Time
EST
Temp
°C
App
Temp
°C
Dew
Point
Rel
Hum
%
Delta-T
°C
Wind Press
QNH
hPa
Press
MSL
hPa
Rain
since 9 am
mm
Dir
 
Spd
km/h
Gust
km/h
Spd
kts
Gust
kts
31/11:30pm 9.8 6.1 0.2 51 3.9 NW 9 11 5 6 1011.0 - 0.0
31/11:00pm 10.0 6.3 0.1 50 4.1 NNW 9 13 5 7 1011.0 1011.3 0.0
31/10:30pm 9.4 5.6 -0.5 50 4.0 NW 9 11 5 6 1011.1 - 0.0
31/10:00pm 11.0 6.7 1.3 51 4.1 NW 13 15 7 8 1011.1 1011.4 0.0
31/09:30pm 9.7 6.5 0.6 53 3.8 N 7 9 4 5 1011.2 - 0.0
31/09:00pm 10.5 6.9 0.8 51 4.1 NNW 9 11 5 6 1011.2 1011.5 0.0
31/08:30pm 10.9 7.0 0.9 50 4.2 N 11 13 6 7 1011.2 - 0.0
31/08:00pm 11.5 7.6 0.9 48 4.5 N 11 13 6 7 1011.3 1011.6 0.0
31/07:30pm 12.3 8.4 1.3 47 4.7 N 11 13 6 7 1011.3 - 0.0
31/07:00pm 12.5 8.7 1.8 48 4.7 N 11 15 6 8 1011.2 1011.5 0.0
31/06:30pm 13.9 9.1 2.8 47 5.0 N 17 24 9 13 1011.2 - 0.0
31/06:00pm 13.0 7.9 2.8 50 4.6 N 19 22 10 12 1011.3 1011.6 0.0
31/05:30pm 14.1 8.9 2.4 45 5.2 N 19 20 10 11 1011.3 - 0.0
31/05:00pm 17.9 12.5 2.2 35 7.2 N 20 26 11 14 1011.4 1011.7 0.0
31/04:30pm 19.1 13.0 2.5 33 7.8 NNW 24 32 13 17 1011.8 - 0.0
31/04:00pm 20.0 13.1 2.4 31 8.3 NNW 28 37 15 20 1011.8 1012.2 0.0
31/03:30pm 20.4 13.1 2.3 30 8.5 NNW 30 43 16 23 1012.1 - 0.0
31/03:00pm 20.6 13.8 2.9 31 8.4 NNW 28 37 15 20 1012.5 1012.8 0.0
31/02:30pm 20.8 12.9 2.1 29 8.8 NNW 33 43 18 23 1012.9 - 0.0
31/02:00pm 20.8 13.5 4.4 34 8.1 NNW 32 43 17 23 1013.6 1013.9 0.0
31/01:30pm 20.4 13.4 4.0 34 8.0 NNW 30 43 16 23 1014.0 - 0.0
31/01:00pm 19.8 12.9 4.7 37 7.4 NNW 30 39 16 21 1014.7 1015.1 0.0
31/12:30pm 19.2 12.7 4.6 38 7.1 NNW 28 37 15 20 1015.4 - 0.0
31/12:00pm 18.7 12.2 4.5 39 6.9 NW 28 33 15 18 1016.2 1016.5 0.0
31/11:30am 18.2 12.2 5.1 42 6.4 NNW 26 35 14 19 1016.9 - 0.0
31/11:00am 17.7 13.4 5.3 44 6.1 NW 17 20 9 11 1017.2 1017.5 0.0
31/10:30am 17.0 13.5 5.3 46 5.7 NNW 13 20 7 11 1017.5 - 0.0
31/10:00am 15.2 12.7 6.7 57 4.2 N 9 13 5 7 1017.9 1018.3 0.0
31/09:30am 12.4 10.4 7.1 70 2.6 NNE 7 9 4 5 1018.2 - 0.0
31/09:00am 10.3 8.0 5.9 74 2.1 ENE 7 13 4 7 1018.3 1018.7 0.0
31/08:30am 8.1 6.1 6.2 88 0.9 E 6 7 3 4 1018.6 - 0.0
31/08:00am 6.3 4.1 6.2 99 0.0 ESE 7 9 4 5 1018.6 1019.0 0.0
31/07:30am 4.1 0.3 4.1 100 0.0 SE 13 15 7 8 1018.6 - 0.0
31/07:00am 2.9 -0.7 2.8 99 0.0 SE 11 13 6 7 1018.3 1018.7 0.0
31/06:30am 2.8 -0.5 2.7 99 0.0 SE 9 11 5 6 1018.4 - 0.0
31/06:00am 2.7 -0.6 2.6 99 0.0 SE 9 11 5 6 1018.2 1018.6 0.0
31/05:30am 3.4 -0.1 3.3 99 0.0 SSE 11 13 6 7 1017.9 - 0.0
31/05:00am 3.8 0.0 3.7 99 0.0 SSE 13 17 7 9 1017.9 1018.3 0.0
31/04:30am 4.2 0.4 4.1 99 0.0 SE 13 13 7 7 1017.9 - 0.0
31/04:00am 3.6 0.5 3.5 99 0.0 SSE 9 11 5 6 1018.1 1018.5 0.0
31/03:30am 4.2 1.2 4.1 99 0.0 SE 9 11 5 6 1018.2 - 0.0
31/03:00am 4.1 1.5 4.0 99 0.0 SE 7 9 4 5 1018.4 1018.8 0.0
31/02:30am 4.0 1.3 3.6 97 0.2 ESE 7 9 4 5 1018.5 - 0.0
31/02:00am 4.1 1.5 3.1 93 0.4 ESE 6 7 3 4 1018.6 1019.0 0.0
31/01:30am 4.8 3.4 3.8 93 0.4 CALM 0 0 0 0 1018.7 - 0.0
31/01:00am 4.5 2.9 2.7 88 0.7 CALM 0 2 0 1 1018.9 1019.3 0.0
31/12:30am 5.4 4.0 3.4 87 0.8 CALM 0 0 0 0 1018.9 - 0.0
31/12:00am 6.1 4.7 3.6 84 1.1 CALM 0 0 0 0 1019.1 1019.5 0.0
 
Date/Time
EST
Temp
°C
App
Temp
°C
Dew
Point
Rel
Hum
%
Delta-T
°C
Wind Press
QNH
hPa
Press
MSL
hPa
Rain
since 9 am
mm
Dir
 
Spd
km/h
Gust
km/h
Spd
kts
Gust
kts
30/11:30pm 7.5 6.4 5.3 86 1.0 CALM 0 0 0 0 1019.4 - 0.0
30/11:00pm 7.4 5.3 5.7 89 0.8 ENE 6 6 3 3 1019.7 1020.0 0.0
30/10:30pm 7.5 5.5 6.1 91 0.6 ENE 6 7 3 4 1019.8 - 0.0
30/10:00pm 7.8 6.6 6.3 90 0.7 ENE 2 6 1 3 1020.0 1020.3 0.0
30/09:30pm 8.1 6.0 6.7 91 0.7 NE 7 9 4 5 1020.0 - 0.0
30/09:00pm 7.8 5.1 5.6 86 1.0 ENE 9 13 5 7 1020.1 1020.4 0.0
30/08:30pm 10.1 8.3 7.9 86 1.1 NE 7 7 4 4 1020.1 - 0.0
30/08:00pm 10.2 8.3 7.4 83 1.4 NE 7 9 4 5 1020.2 1020.5 0.0
30/07:30pm 10.6 8.2 7.1 79 1.7 NNE 9 11 5 6 1020.1 - 0.0
30/07:00pm 11.7 9.9 7.8 77 1.9 NNE 7 9 4 5 1020.2 1020.5 0.0
30/06:30pm 11.8 9.5 7.5 75 2.1 NNE 9 9 5 5 1020.0 - 0.0
30/06:00pm 12.2 11.6 7.5 73 2.3 CALM 0 0 0 0 1019.8 1020.1 0.0
30/05:30pm 14.6 12.9 7.4 62 3.6 NNW 6 7 3 4 1019.8 - 0.0
30/05:00pm 16.9 15.2 8.3 57 4.4 NNW 7 9 4 5 1019.7 1020.0 0.0
30/04:30pm 17.9 15.4 8.2 53 5.0 NW 11 15 6 8 1019.5 - 0.0
30/04:00pm 18.3 15.0 8.0 51 5.3 WNW 15 20 8 11 1019.3 1019.7 0.0
30/03:30pm 18.4 14.7 8.1 51 5.4 NW 17 20 9 11 1019.4 - 0.0
30/03:00pm 18.4 14.7 7.8 50 5.5 WNW 17 22 9 12 1019.3 1019.7 0.0
30/02:30pm 18.6 15.4 8.6 52 5.3 NW 15 22 8 12 1019.9 - 0.0
30/02:00pm 18.3 14.5 7.7 50 5.5 W 17 20 9 11 1020.1 1020.4 0.0
30/01:30pm 18.4 15.9 8.1 51 5.4 W 11 20 6 11 1020.4 - 0.0
30/01:00pm 17.9 14.5 7.6 51 5.3 WNW 15 20 8 11 1020.9 1021.3 0.0
30/12:30pm 17.7 14.7 7.7 52 5.1 NW 13 20 7 11 1021.1 - 0.0

Other Formats:

Comma delimited format used in spreadsheet applications
http://www.bom.gov.au/fwo/IDN60801/IDN60801.95719.axf

JavaScript Object Notation format (JSON) in row-major order
http://www.bom.gov.au/fwo/IDN60801/IDN60801.95719.json